createdAt,value
2019-02-22T00:02:08.193Z,1.10
2019-02-22T00:04:37.687Z,0.80
2019-02-22T00:07:07.400Z,3.87
2019-02-22T00:09:36.923Z,1.10
2019-02-22T00:12:06.356Z,1.13
2019-02-22T00:14:36.159Z,2.80
2019-02-22T00:17:05.588Z,5.20
2019-02-22T00:19:35.480Z,1.73
2019-02-22T00:22:05.148Z,0.73
2019-02-22T00:24:34.867Z,2.87
2019-02-22T00:27:04.835Z,1.00
2019-02-22T00:29:34.794Z,0.80
2019-02-22T00:32:04.308Z,6.67
2019-02-22T00:34:34.019Z,0.80
2019-02-22T00:37:04.542Z,2.60
2019-02-22T00:39:34.067Z,3.50
2019-02-22T00:42:03.748Z,4.07
2019-02-22T00:44:33.627Z,3.00
2019-02-22T00:47:03.059Z,0.80
2019-02-22T00:49:32.484Z,1.60
2019-02-22T00:52:02.019Z,0.70
2019-02-22T00:54:31.842Z,1.00
2019-02-22T00:57:01.269Z,1.00
2019-02-22T00:59:30.732Z,1.67
2019-02-22T01:02:00.310Z,0.70
2019-02-22T01:04:30.086Z,0.90
2019-02-22T01:07:01.037Z,0.80
2019-02-22T01:09:30.591Z,3.40
2019-02-22T01:12:00.187Z,1.10
2019-02-22T01:14:29.911Z,3.13
2019-02-22T01:16:59.340Z,5.37
2019-02-22T01:19:28.768Z,3.83
2019-02-22T01:21:58.308Z,0.70
2019-02-22T01:24:27.843Z,6.93
2019-02-22T01:26:57.322Z,7.83
2019-02-22T01:29:26.857Z,13.67
2019-02-22T01:31:56.376Z,23.53
2019-02-22T01:34:27.225Z,7.70
2019-02-22T01:36:56.893Z,34.13
2019-02-22T01:39:26.521Z,24.47
2019-02-22T01:41:56.029Z,7.43
2019-02-22T01:44:25.748Z,24.30
2019-02-22T01:46:55.600Z,23.57
2019-02-22T01:49:25.036Z,8.27
2019-02-22T01:51:54.903Z,17.80
2019-02-22T01:54:24.344Z,5.67
2019-02-22T01:56:54.109Z,9.43
2019-02-22T01:59:23.780Z,21.33
2019-02-22T02:01:53.220Z,8.53
2019-02-22T02:04:22.656Z,13.80
2019-02-22T02:06:52.133Z,24.50
2019-02-22T02:09:21.636Z,7.87
2019-02-22T02:11:51.139Z,15.67
2019-02-22T02:14:20.687Z,23.53
2019-02-22T02:16:50.108Z,14.70
2019-02-22T02:19:19.544Z,22.63
2019-02-22T02:21:49.427Z,8.00
2019-02-22T02:24:18.925Z,8.80
2019-02-22T02:26:48.415Z,14.73
2019-02-22T02:29:17.912Z,17.27
2019-02-22T02:31:47.718Z,18.73
2019-02-22T02:34:17.246Z,8.07
2019-02-22T02:36:46.981Z,25.93
2019-02-22T02:39:16.439Z,25.30
2019-02-22T02:41:45.932Z,18.80
2019-02-22T02:44:15.455Z,1.90
2019-02-22T02:46:44.963Z,9.33
2019-02-22T02:49:14.739Z,20.30
2019-02-22T02:51:44.280Z,5.33
2019-02-22T02:54:13.808Z,26.50
2019-02-22T02:56:46.107Z,19.20
2019-02-22T02:59:14.609Z,8.17
2019-02-22T03:01:44.540Z,4.40
2019-02-22T03:04:14.554Z,15.67
2019-02-22T03:06:46.028Z,18.33
2019-02-22T03:09:16.660Z,14.73
2019-02-22T03:11:46.142Z,8.73
2019-02-22T03:14:15.683Z,6.87
2019-02-22T03:16:45.180Z,6.00
2019-02-22T03:19:14.619Z,20.50
2019-02-22T03:21:44.148Z,17.07
2019-02-22T03:24:13.673Z,25.43
2019-02-22T03:26:43.246Z,19.37
2019-02-22T03:29:13.062Z,11.77
2019-02-22T03:31:42.853Z,10.33
2019-02-22T03:34:12.438Z,12.67
2019-02-22T03:36:42.461Z,7.77
2019-02-22T03:39:12.131Z,9.07
2019-02-22T03:41:42.524Z,20.53
2019-02-22T03:44:12.151Z,14.47
2019-02-22T03:46:41.612Z,18.70
2019-02-22T03:49:11.344Z,14.43
2019-02-22T03:51:41.216Z,12.63
2019-02-22T03:54:11.184Z,22.43
2019-02-22T03:56:40.687Z,16.57
2019-02-22T03:59:10.215Z,14.97
2019-02-22T04:01:39.644Z,12.40
2019-02-22T04:04:09.080Z,24.87
2019-02-22T04:06:39.784Z,19.43
2019-02-22T04:09:10.893Z,18.30
2019-02-22T04:11:45.728Z,9.37
2019-02-22T04:14:13.100Z,16.07
2019-02-22T04:16:42.636Z,8.03
2019-02-22T04:19:12.139Z,3.50
2019-02-22T04:21:43.644Z,5.00
2019-02-22T04:24:13.481Z,12.07
2019-02-22T04:26:43.192Z,25.17
2019-02-22T04:29:12.672Z,4.43
2019-02-22T04:31:42.176Z,7.77
2019-02-22T04:34:11.916Z,9.77
2019-02-22T04:36:41.751Z,14.27
2019-02-22T04:39:11.360Z,1.90
2019-02-22T04:41:40.976Z,9.73
2019-02-22T04:44:10.964Z,18.93
2019-02-22T04:46:40.409Z,9.23
2019-02-22T04:49:10.017Z,3.43
2019-02-22T04:51:39.640Z,7.17
2019-02-22T04:54:09.492Z,7.70
2019-02-22T04:56:39.139Z,5.47
2019-02-22T04:59:09.332Z,13.47
2019-02-22T05:01:38.894Z,1.57
2019-02-22T05:04:08.481Z,5.17
2019-02-22T05:06:38.474Z,11.53
2019-02-22T05:09:08.390Z,13.03
2019-02-22T05:11:37.819Z,4.27
2019-02-22T05:14:08.795Z,5.13
2019-02-22T05:16:38.227Z,8.40
2019-02-22T05:19:07.683Z,12.93
2019-02-22T05:21:37.415Z,26.13
2019-02-22T05:24:09.121Z,17.23
2019-02-22T05:26:38.603Z,2.50
2019-02-22T05:29:08.282Z,21.63
2019-02-22T05:31:38.186Z,19.87
2019-02-22T05:34:07.755Z,9.27
2019-02-22T05:36:37.301Z,1.40
2019-02-22T05:39:18.694Z,10.03
2019-02-22T05:41:48.558Z,14.97
2019-02-22T05:44:18.205Z,2.93
2019-02-22T05:46:59.651Z,13.20
2019-02-22T05:49:22.011Z,13.83
2019-02-22T05:51:49.979Z,3.07
2019-02-22T05:54:19.596Z,9.70
2019-02-22T05:56:49.736Z,26.63
2019-02-22T05:59:19.267Z,23.47
2019-02-22T06:01:48.759Z,2.53
2019-02-22T06:04:18.220Z,4.40
2019-02-22T06:06:47.777Z,18.20
2019-02-22T06:09:17.806Z,3.47
2019-02-22T06:11:47.331Z,3.80
2019-02-22T06:14:17.129Z,7.47
2019-02-22T06:16:47.414Z,3.03
2019-02-22T06:19:17.477Z,1.70
2019-02-22T06:21:47.422Z,1.17
2019-02-22T06:24:17.541Z,0.80
2019-02-22T06:26:47.425Z,3.13
2019-02-22T06:29:16.854Z,3.60
2019-02-22T06:31:46.430Z,3.70
2019-02-22T06:34:15.956Z,7.50
2019-02-22T06:36:45.459Z,16.03
2019-02-22T06:39:15.468Z,1.37
2019-02-22T06:41:45.043Z,8.43
2019-02-22T06:44:14.643Z,2.47
2019-02-22T06:46:44.594Z,16.03
2019-02-22T06:49:14.118Z,6.67
2019-02-22T06:51:43.631Z,15.27
2019-02-22T06:54:13.424Z,6.10
2019-02-22T06:56:42.896Z,11.13
2019-02-22T06:59:12.332Z,12.10
2019-02-22T07:01:42.025Z,5.20
2019-02-22T07:04:11.548Z,1.50
2019-02-22T07:06:42.959Z,23.67
2019-02-22T07:09:12.640Z,4.77
2019-02-22T07:11:53.381Z,3.57
2019-02-22T07:14:22.889Z,3.10
2019-02-22T07:16:53.392Z,4.97
2019-02-22T07:19:23.424Z,3.13
2019-02-22T07:21:53.278Z,1.53
2019-02-22T07:24:23.274Z,5.40
2019-02-22T07:26:53.268Z,0.90
2019-02-22T07:29:22.696Z,6.30
2019-02-22T07:31:52.127Z,1.87
2019-02-22T07:34:21.579Z,1.00
2019-02-22T07:36:51.232Z,6.20
2019-02-22T07:39:27.818Z,5.30
2019-02-22T07:41:52.660Z,13.47
2019-02-22T07:44:22.367Z,8.77
2019-02-22T07:46:51.853Z,6.67
2019-02-22T07:49:24.228Z,16.03
2019-02-22T07:51:53.733Z,1.33
2019-02-22T07:54:23.308Z,5.43
2019-02-22T07:56:52.817Z,2.93
2019-02-22T07:59:22.313Z,4.83
2019-02-22T08:01:51.808Z,1.20
2019-02-22T08:04:21.460Z,1.30
2019-02-22T08:06:51.301Z,1.47
2019-02-22T08:09:21.011Z,1.17
2019-02-22T08:11:50.556Z,3.13
2019-02-22T08:14:20.000Z,4.13
2019-02-22T08:16:49.423Z,2.43
2019-02-22T08:19:20.327Z,3.27
2019-02-22T08:21:49.768Z,2.70
2019-02-22T08:24:19.263Z,5.60
2019-02-22T08:26:48.839Z,1.83
2019-02-22T08:29:18.405Z,8.13
2019-02-22T08:31:48.200Z,9.23
2019-02-22T08:34:17.648Z,2.30
2019-02-22T08:36:47.214Z,4.40
2019-02-22T08:39:16.635Z,1.37
2019-02-22T08:41:46.306Z,2.00
2019-02-22T08:44:16.443Z,3.90
2019-02-22T08:46:46.156Z,7.23
2019-02-22T08:49:15.619Z,2.00
2019-02-22T08:51:45.117Z,2.73
2019-02-22T08:54:16.516Z,8.63
2019-02-22T08:56:46.432Z,7.93
2019-02-22T08:59:15.865Z,3.50
2019-02-22T09:01:45.359Z,2.90
2019-02-22T09:04:14.906Z,3.20
2019-02-22T09:06:44.660Z,4.53
2019-02-22T09:09:14.092Z,7.23
2019-02-22T09:11:43.547Z,1.60
2019-02-22T09:14:13.535Z,5.50
2019-02-22T09:17:02.581Z,7.60
2019-02-22T09:19:33.223Z,8.33
2019-02-22T09:22:02.889Z,3.37
2019-02-22T09:24:33.012Z,3.63
2019-02-22T09:27:02.436Z,1.57
2019-02-22T09:29:31.943Z,2.97
2019-02-22T09:32:01.484Z,5.20
2019-02-22T09:34:30.980Z,1.73
2019-02-22T09:37:00.417Z,4.23
2019-02-22T09:39:30.024Z,5.93
2019-02-22T09:41:59.523Z,3.43
2019-02-22T09:44:29.464Z,7.53
2019-02-22T09:46:59.404Z,3.23
2019-02-22T09:49:28.907Z,3.63
2019-02-22T09:51:58.335Z,3.73
2019-02-22T09:54:28.102Z,2.73
2019-02-22T09:56:57.603Z,3.63
2019-02-22T09:59:27.036Z,1.20
2019-02-22T10:01:56.503Z,1.93
2019-02-22T10:04:26.351Z,4.77
2019-02-22T10:06:55.829Z,0.83
2019-02-22T10:09:25.956Z,2.07
2019-02-22T10:11:55.414Z,2.07
2019-02-22T10:14:24.930Z,2.73
2019-02-22T10:16:54.457Z,7.00
2019-02-22T10:19:24.000Z,5.63
2019-02-22T10:21:57.417Z,1.17
2019-02-22T10:24:26.724Z,1.90
2019-02-22T10:26:57.369Z,6.30
2019-02-22T10:29:28.273Z,0.90
2019-02-22T10:31:57.945Z,1.83
2019-02-22T10:34:27.788Z,2.50
2019-02-22T10:36:57.327Z,4.17
2019-02-22T10:39:27.051Z,3.33
2019-02-22T10:41:56.484Z,1.00
2019-02-22T10:44:26.604Z,1.07
2019-02-22T10:46:56.429Z,2.07
2019-02-22T10:49:25.936Z,1.80
2019-02-22T10:51:55.821Z,1.27
2019-02-22T10:54:25.732Z,7.70
2019-02-22T10:56:55.646Z,1.53
2019-02-22T10:59:30.105Z,1.63
2019-02-22T11:02:07.059Z,0.83
2019-02-22T11:04:36.827Z,4.20
2019-02-22T11:07:06.703Z,0.80
2019-02-22T11:09:38.885Z,0.70
2019-02-22T11:12:08.985Z,1.50
2019-02-22T11:14:38.973Z,0.90
2019-02-22T11:17:08.703Z,1.90
2019-02-22T11:19:38.275Z,3.17
2019-02-22T11:22:07.853Z,2.00
2019-02-22T11:24:40.520Z,7.80
2019-02-22T11:27:13.820Z,3.90
2019-02-22T11:29:43.309Z,1.33
2019-02-22T11:32:12.871Z,1.97
2019-02-22T11:34:42.740Z,0.70
2019-02-22T11:37:12.280Z,1.30
2019-02-22T11:39:41.888Z,0.67
2019-02-22T11:42:11.687Z,0.63
2019-02-22T11:44:41.119Z,0.97
2019-02-22T11:47:10.633Z,1.60
2019-02-22T11:49:40.161Z,1.33
2019-02-22T11:52:10.100Z,2.57
2019-02-22T11:54:39.601Z,1.93
2019-02-22T11:57:10.576Z,1.57
2019-02-22T11:59:40.008Z,0.90
2019-02-22T12:02:09.889Z,4.10
2019-02-22T12:04:39.361Z,1.57
2019-02-22T12:07:09.144Z,2.33
2019-02-22T12:09:39.588Z,0.80
2019-02-22T12:12:09.388Z,1.00
2019-02-22T12:14:39.154Z,0.80
2019-02-22T12:17:08.656Z,1.53
2019-02-22T12:19:38.496Z,0.80
2019-02-22T12:22:07.985Z,0.60
2019-02-22T12:24:37.484Z,0.90
2019-02-22T12:27:07.043Z,0.80
2019-02-22T12:29:37.112Z,3.73
2019-02-22T12:32:06.851Z,2.00
2019-02-22T12:34:36.813Z,1.53
2019-02-22T12:37:06.552Z,0.80
2019-02-22T12:39:36.159Z,2.03
2019-02-22T12:42:06.113Z,1.93
2019-02-22T12:44:35.619Z,1.57
2019-02-22T12:47:05.416Z,5.00
2019-02-22T12:49:35.128Z,1.40
2019-02-22T12:52:05.606Z,0.97
2019-02-22T12:54:35.111Z,0.97
2019-02-22T12:57:07.752Z,4.23
2019-02-22T12:59:37.267Z,0.70
2019-02-22T13:02:06.935Z,2.40
2019-02-22T13:04:36.487Z,1.20
2019-02-22T13:07:06.994Z,2.40
2019-02-22T13:09:37.119Z,1.33
2019-02-22T13:12:14.116Z,0.87
2019-02-22T13:14:38.024Z,4.00
2019-02-22T13:17:07.525Z,1.90
2019-02-22T13:19:37.413Z,2.40
2019-02-22T13:22:07.041Z,5.20
2019-02-22T13:24:36.476Z,1.00
2019-02-22T13:27:07.195Z,2.30
2019-02-22T13:29:36.629Z,1.70
2019-02-22T13:32:06.200Z,3.13
2019-02-22T13:34:35.791Z,0.80
2019-02-22T13:37:05.289Z,1.17
2019-02-22T13:39:35.939Z,2.10
2019-02-22T13:42:06.224Z,2.10
2019-02-22T13:44:36.048Z,1.67
2019-02-22T13:47:06.036Z,3.03
2019-02-22T13:49:35.643Z,1.57
2019-02-22T13:52:05.275Z,1.10
2019-02-22T13:54:34.965Z,1.30
2019-02-22T13:57:04.857Z,6.90
2019-02-22T13:59:35.009Z,0.70
2019-02-22T14:02:04.700Z,3.63
2019-02-22T14:04:35.172Z,1.07
2019-02-22T14:07:06.837Z,2.07
2019-02-22T14:09:37.086Z,1.13
2019-02-22T14:12:06.765Z,1.27
2019-02-22T14:14:36.246Z,1.10
2019-02-22T14:17:05.695Z,1.07
2019-02-22T14:19:35.509Z,0.80
2019-02-22T14:22:05.320Z,0.53
2019-02-22T14:24:35.240Z,1.23
2019-02-22T14:27:05.361Z,1.40
2019-02-22T14:29:36.297Z,1.63
2019-02-22T14:32:06.136Z,0.60
2019-02-22T14:34:35.920Z,0.70
2019-02-22T14:37:05.353Z,0.60
2019-02-22T14:39:34.861Z,0.80
2019-02-22T14:42:04.696Z,1.57
2019-02-22T14:44:34.479Z,0.90
2019-02-22T14:47:04.468Z,1.53
2019-02-22T14:49:34.259Z,0.70
2019-02-22T14:52:03.828Z,0.57
2019-02-22T14:54:33.981Z,0.77
2019-02-22T14:57:04.040Z,1.73
2019-02-22T14:59:34.419Z,0.63
2019-02-22T15:02:04.105Z,2.30
2019-02-22T15:04:36.101Z,2.40
2019-02-22T15:07:05.160Z,0.70
2019-02-22T15:09:34.696Z,0.60
2019-02-22T15:12:04.684Z,0.60
2019-02-22T15:14:34.442Z,0.80
2019-02-22T15:17:17.452Z,0.70
2019-02-22T15:19:47.024Z,1.17
2019-02-22T15:22:16.794Z,0.70
2019-02-22T15:24:46.417Z,0.90
2019-02-22T15:27:16.231Z,1.30
2019-02-22T15:29:47.575Z,0.60
2019-02-22T15:32:17.279Z,0.60
2019-02-22T15:34:47.358Z,1.63
2019-02-22T15:37:17.452Z,0.70
2019-02-22T15:39:47.104Z,0.93
2019-02-22T15:42:23.579Z,9.10
2019-02-22T15:44:53.032Z,0.70
2019-02-22T15:47:22.488Z,0.60
2019-02-22T15:49:52.940Z,0.97
2019-02-22T15:52:22.712Z,1.53
2019-02-22T15:54:52.160Z,0.70
2019-02-22T15:57:22.003Z,1.80
2019-02-22T15:59:51.474Z,0.70
2019-02-22T16:02:21.040Z,0.80
2019-02-22T16:04:52.189Z,1.33
2019-02-22T16:07:21.881Z,0.90
2019-02-22T16:09:51.792Z,0.80
2019-02-22T16:12:21.295Z,1.63
2019-02-22T16:14:51.313Z,0.60
2019-02-22T16:17:21.292Z,0.90
2019-02-22T16:19:51.607Z,1.00
2019-02-22T16:22:22.228Z,1.10
2019-02-22T16:24:51.696Z,0.77
2019-02-22T16:27:21.572Z,1.00
2019-02-22T16:29:52.448Z,1.80
2019-02-22T16:32:23.360Z,0.80
2019-02-22T16:34:52.943Z,0.70
2019-02-22T16:37:22.496Z,6.63
2019-02-22T16:39:53.152Z,0.70
2019-02-22T16:42:22.696Z,1.00
2019-02-22T16:44:52.223Z,0.60
2019-02-22T16:47:22.615Z,1.50
2019-02-22T16:49:52.271Z,0.70
2019-02-22T16:52:22.815Z,0.70
2019-02-22T16:54:52.600Z,0.60
2019-02-22T16:57:22.319Z,2.40
2019-02-22T16:59:53.731Z,0.80
2019-02-22T17:02:23.398Z,1.27
2019-02-22T17:04:52.924Z,0.60
2019-02-22T17:07:22.711Z,0.70
2019-02-22T17:09:52.220Z,1.00
2019-02-22T17:12:22.100Z,1.50
2019-02-22T17:14:52.007Z,0.80
2019-02-22T17:17:21.820Z,1.00
2019-02-22T17:19:51.528Z,1.13
2019-02-22T17:22:21.119Z,1.10
2019-02-22T17:24:50.684Z,0.70
2019-02-22T17:27:20.311Z,1.00
2019-02-22T17:29:50.474Z,1.37
2019-02-22T17:32:20.225Z,1.17
2019-02-22T17:34:49.711Z,0.90
2019-02-22T17:37:19.459Z,0.70
2019-02-22T17:39:50.077Z,1.30
2019-02-22T17:42:20.052Z,0.87
2019-02-22T17:44:49.963Z,1.03
2019-02-22T17:47:19.463Z,0.70
2019-02-22T17:49:48.890Z,1.03
2019-02-22T17:52:18.355Z,0.80
2019-02-22T17:54:54.004Z,0.80
2019-02-22T17:57:23.587Z,1.23
2019-02-22T17:59:53.660Z,1.10
2019-02-22T18:02:23.151Z,1.00
2019-02-22T18:04:52.643Z,2.93
2019-02-22T18:07:22.240Z,3.80
2019-02-22T18:09:52.222Z,0.80
2019-02-22T18:12:21.823Z,1.00
2019-02-22T18:14:51.623Z,0.73
2019-02-22T18:17:21.132Z,0.80
2019-02-22T18:19:50.765Z,0.70
2019-02-22T18:22:25.879Z,0.80
2019-02-22T18:24:52.177Z,0.60
2019-02-22T18:27:23.547Z,0.60
2019-02-22T18:29:53.080Z,1.10
2019-02-22T18:32:23.889Z,2.43
2019-02-22T18:34:53.470Z,0.60
2019-02-22T18:37:23.620Z,0.80
2019-02-22T18:39:53.535Z,1.50
2019-02-22T18:42:24.231Z,0.80
2019-02-22T18:44:55.112Z,0.70
2019-02-22T18:47:25.585Z,0.80
2019-02-22T18:49:55.285Z,1.00
2019-02-22T18:52:26.101Z,0.83
2019-02-22T18:55:14.940Z,1.00
2019-02-22T18:57:45.066Z,1.70
2019-02-22T19:00:16.941Z,2.10
2019-02-22T19:02:46.438Z,1.13
2019-02-22T19:05:16.268Z,2.17
2019-02-22T19:07:45.869Z,8.00
2019-02-22T19:10:17.769Z,2.20
2019-02-22T19:12:47.582Z,2.20
2019-02-22T19:15:17.075Z,1.20
2019-02-22T19:17:46.505Z,1.10
2019-02-22T19:20:20.403Z,0.80
2019-02-22T19:22:49.965Z,1.53
2019-02-22T19:25:20.420Z,1.53
2019-02-22T19:27:50.449Z,0.87
2019-02-22T19:30:24.611Z,4.20
2019-02-22T19:32:54.107Z,1.20
2019-02-22T19:35:24.027Z,1.20
2019-02-22T19:37:53.690Z,1.90
2019-02-22T19:40:26.109Z,2.87
2019-02-22T19:42:55.850Z,2.37
2019-02-22T19:45:25.292Z,2.57
2019-02-22T19:47:55.071Z,1.77
2019-02-22T19:50:24.539Z,1.97
2019-02-22T19:52:54.294Z,2.00
2019-02-22T19:55:23.823Z,2.87
2019-02-22T19:57:54.595Z,4.10
2019-02-22T20:00:24.256Z,2.63
2019-02-22T20:02:53.825Z,1.37
2019-02-22T20:05:23.783Z,0.80
2019-02-22T20:07:53.540Z,2.60
2019-02-22T20:10:24.385Z,1.30
2019-02-22T20:12:55.273Z,6.50
2019-02-22T20:15:25.092Z,2.00
2019-02-22T20:17:55.160Z,0.70
2019-02-22T20:20:24.819Z,2.70
2019-02-22T20:22:56.168Z,0.80
2019-02-22T20:25:25.776Z,0.90
2019-02-22T20:27:55.663Z,1.00
2019-02-22T20:30:25.422Z,0.90
2019-02-22T20:32:58.556Z,2.40
2019-02-22T20:35:31.363Z,1.00
2019-02-22T20:38:01.792Z,1.00
2019-02-22T20:40:31.271Z,1.27
2019-02-22T20:43:00.760Z,0.90
2019-02-22T20:45:30.300Z,1.57
2019-02-22T20:48:05.111Z,1.13
2019-02-22T20:50:34.574Z,2.17
2019-02-22T20:53:04.140Z,0.90
2019-02-22T20:55:33.564Z,1.00
2019-02-22T20:58:03.531Z,1.20
2019-02-22T21:00:33.196Z,1.20
2019-02-22T21:03:02.781Z,1.70
2019-02-22T21:05:32.503Z,0.80
2019-02-22T21:08:04.620Z,1.30
2019-02-22T21:10:36.682Z,1.60
2019-02-22T21:13:06.595Z,2.33
2019-02-22T21:15:36.076Z,3.03
2019-02-22T21:18:15.628Z,2.40
2019-02-22T21:20:36.832Z,1.73
2019-02-22T21:23:06.491Z,3.17
2019-02-22T21:25:36.210Z,2.00
2019-02-22T21:28:05.996Z,5.80
2019-02-22T21:30:35.796Z,4.53
2019-02-22T21:33:05.291Z,3.00
2019-02-22T21:35:35.228Z,11.63
2019-02-22T21:38:05.970Z,5.33
2019-02-22T21:40:35.501Z,1.23
2019-02-22T21:43:05.084Z,2.30
2019-02-22T21:45:34.772Z,2.87
2019-02-22T21:48:04.413Z,0.77
2019-02-22T21:50:33.933Z,0.83
2019-02-22T21:53:03.444Z,1.97
2019-02-22T21:55:32.949Z,3.67
2019-02-22T21:58:02.879Z,3.70
2019-02-22T22:00:32.756Z,1.20
2019-02-22T22:03:02.655Z,2.20
2019-02-22T22:05:32.676Z,3.03
2019-02-22T22:08:02.288Z,2.63
2019-02-22T22:10:31.703Z,2.13
2019-02-22T22:13:01.368Z,0.80
2019-02-22T22:15:30.876Z,4.43
2019-02-22T22:18:00.604Z,3.63
2019-02-22T22:20:30.303Z,9.50
2019-02-22T22:22:59.751Z,3.17
2019-02-22T22:25:29.232Z,4.33
2019-02-22T22:27:58.751Z,5.83
2019-02-22T22:30:28.249Z,1.80
2019-02-22T22:32:57.668Z,2.13
2019-02-22T22:35:27.472Z,0.90
2019-02-22T22:37:58.392Z,4.13
2019-02-22T22:40:28.842Z,4.80
2019-02-22T22:42:58.587Z,4.20
2019-02-22T22:45:28.186Z,1.50
2019-02-22T22:47:57.772Z,2.20
2019-02-22T22:50:27.228Z,1.40
2019-02-22T22:52:56.850Z,1.37
2019-02-22T22:55:26.292Z,4.30
2019-02-22T22:57:56.072Z,0.80
2019-02-22T23:00:51.500Z,1.00
2019-02-22T23:03:22.077Z,3.53
2019-02-22T23:05:51.944Z,3.77
2019-02-22T23:08:21.848Z,2.53
2019-02-22T23:10:51.363Z,4.70
2019-02-22T23:13:20.906Z,1.97
2019-02-22T23:15:50.800Z,0.93
2019-02-22T23:18:20.792Z,8.93
2019-02-22T23:20:50.911Z,2.00
2019-02-22T23:23:20.334Z,2.27
2019-02-22T23:25:49.938Z,4.23
2019-02-22T23:28:19.436Z,3.03
2019-02-22T23:30:48.933Z,3.50
2019-02-22T23:33:18.396Z,2.03
2019-02-22T23:35:48.149Z,1.20
2019-02-22T23:38:17.855Z,1.20
2019-02-22T23:40:48.405Z,2.97
2019-02-22T23:43:18.205Z,0.77
2019-02-22T23:45:47.697Z,0.90
2019-02-22T23:48:17.268Z,2.60
2019-02-22T23:50:47.035Z,3.70
2019-02-22T23:53:16.451Z,3.30
2019-02-22T23:55:45.904Z,2.07
2019-02-22T23:58:15.543Z,2.93
